Monday, June 25, 2018, 7:27 PM GMT
Back to Local

CYQI, Yarmouth, N. S.

Location: , , Canada Lat: 43.833
Local Time: 7:27 PM GMT (19:27 GMT) Lon: -66.083
Time Zone: GMT Elev: 141 ft

Show me the last for .
Show Coded

Time T Td Feel RH Dir Speed Gust Alt SLP Vis Weather Sky Remarks
2018-06-25 19:00 59 50 - 72 360° 18 28 29.83 29.83 15 OVC022 Pressure rising rapidly
2018-06-25 18:00 59 52 - 77 60° 16 23 29.77 29.77 15 FEW019 BKN062 None
2018-06-25 17:00 61 54 - 77 40° 18 31 29.76 29.77 15 OVC018 None
2018-06-25 16:00 57 54 - 87 20° 16 23 29.76 29.77 15 OVC012 None
2018-06-25 15:00 57 55 - 93 30° 21 29 29.73 29.74 8 OVC011 None
2018-06-25 14:35 57 57 - 100 30° 18 28 29.73 29.73 3 -DZ BR OVC007 None
2018-06-25 14:00 57 57 - 100 10° 17 23 29.73 29.73 3 -RA BR OVC005 Pressure falling rapidly
2018-06-25 13:00 59 59 - 100 360° 7 - 29.73 29.74 3 -RA BR OVC004 None
2018-06-25 12:37 59 59 - 100 50° 6 - 29.73 29.73 2 RA BR OVC004 Pressure falling rapidly
2018-06-25 12:00 57 57 - 100 320° 7 - 29.74 29.75 2 -RA BR VV005 None
2018-06-25 11:49 57 57 - 100 360° 5 - 29.73 29.74 1 -RA BR VV004 None
2018-06-25 11:24 57 57 - 100 60° 3 - 29.73 29.74 3 -RA BR OVC005 None
2018-06-25 11:00 57 57 - 100 120° 3 - 29.74 29.74 3 -RA BR BKN003 OVC025 None
2018-06-25 10:26 57 57 - 100 130° 3 - 29.74 29.74 3 -RA BR BKN003 OVC030 None
2018-06-25 10:13 57 57 - 100 130° 5 - 29.73 29.74 2 -RA BR SCT002 OVC030 None
2018-06-25 10:00 57 57 - 100 120° 6 - 29.74 29.74 2 RA BR SCT002 OVC035 None
2018-06-25 09:27 57 57 - 100 150° 3 - 29.78 29.78 1 RA BR SCT005 OVC030 None
2018-06-25 09:15 57 57 - 100 230° 3 - 29.79 29.80 1 RA BR OVC004 Pressure rising rapidly
2018-06-25 09:11 57 57 - 100 Variable 5 - 29.78 29.79 2 -RA BR BKN004 OVC018 Pressure rising rapidly
2018-06-25 09:00 57 57 - 100 70° 2 - 29.76 29.76 1 -RA BR BKN003 OVC017 None
2018-06-25 08:53 57 57 - 100 60° 3 - 29.76 29.76 1 -RA BR OVC003 None
2018-06-25 08:43 57 57 - 100 80° 5 - 29.76 29.76 1 -RA BR OVC002 None
2018-06-25 08:30 57 57 - 100 80° 2 - 29.76 29.76 1 -RA BR VV004 None
2018-06-25 08:18 57 57 - 100 90° 3 - 29.76 29.77 0 -RA BR VV004 None
2018-06-25 08:00 57 55 - 93 - Calm - 29.77 29.78 0 FG VV002 None
2018-06-25 07:39 57 55 - 93 110° 5 - 29.77 29.77 0 FG VV002 None
2018-06-25 07:26 55 55 - 100 130° 3 - 29.78 29.78 1 BR OVC001 None
2018-06-25 07:13 55 55 - 100 140° 5 - 29.79 29.79 1 BR OVC002 None
2018-06-25 07:04 55 55 - 100 130° 5 - 29.79 29.79 0 BR OVC001 None
2018-06-25 07:00 55 55 - 100 120° 5 - 29.79 29.79 0 FG VV002 None
2018-06-25 06:16 55 55 - 100 140° 3 - 29.80 29.80 0 FG VV002 None
2018-06-25 06:05 55 55 - 100 150° 3 - 29.80 29.80 0 BR VV003 None
2018-06-25 06:00 55 55 - 100 - Calm - 29.81 29.81 0 FG VV002 None
2018-06-25 05:51 55 55 - 100 - Calm - 29.81 29.81 0 FG VV003 None
2018-06-25 05:33 55 55 - 100 - Calm - 29.81 29.81 0 FG VV002 None
2018-06-25 05:00 55 55 - 100 250° 5 - 29.82 29.82 0 FG VV002 None
2018-06-25 04:06 55 55 - 100 230° 8 - 29.83 29.84 0 FG VV002 None
2018-06-25 04:00 55 55 - 100 240° 7 - 29.83 29.84 0 FG VV002 None
2018-06-25 03:08 55 55 - 100 210° 5 - 29.84 29.84 0 FG VV002 None
2018-06-25 03:02 55 55 - 100 220° 6 - 29.84 29.85 0 BR VV002 None
2018-06-25 03:00 55 55 - 100 230° 6 - 29.84 29.85 1 BR OVC001 None
2018-06-25 02:54 55 55 - 100 240° 5 - 29.84 29.85 2 BR OVC001 None
2018-06-25 02:44 55 55 - 100 240° 5 - 29.84 29.84 2 BR OVC002 None
2018-06-25 02:27 55 55 - 100 260° 6 - 29.85 29.85 9 OVC002 None
2018-06-25 02:00 55 55 - 100 250° 7 - 29.86 29.86 10 OVC003 None
2018-06-25 01:47 55 55 - 100 230° 6 - 29.85 29.86 10 OVC003 None
2018-06-25 01:39 55 55 - 100 240° 7 - 29.86 29.86 10 OVC004 None
2018-06-25 01:33 55 55 - 100 240° 7 - 29.86 29.86 10 BKN008 OVC090 None
2018-06-25 01:00 55 55 - 100 240° 8 - 29.85 29.85 15 FEW004 SCT058 BKN080 None
2018-06-25 00:00 55 55 - 100 270° 6 - 29.84 29.84 15 SCT003 OVC064 None
2018-06-24 23:00 57 55 - 93 270° 10 - 29.84 29.84 15 FEW007 BKN068 BKN230 None
2018-06-24 22:00 59 55 - 87 270° 12 - 29.83 29.84 15 SCT007 BKN069 BKN250 None
2018-06-24 21:00 61 55 - 82 290° 10 - 29.80 29.81 15 FEW008 SCT039 BKN250 None
2018-06-24 20:00 59 55 - 87 280° 12 - 29.81 29.82 12 SCT006 OVC041 None
2018-06-24 19:49 61 54 - 77 290° 12 - 29.81 29.81 12 SCT008 BKN040 None

Support USWX by starting your Amazon purchase here.